KFWS

Fort Worth Spinks Airport

Fort Worth, Texas, USA
METAR KFWS 141246Z 00000KT 4SM BR OVC085 24/22 A2999
Observed Flight Rules
Aug-14 @ 12:46 UTC (56 minutes ago) Marginal Visual Flight Rules
Visibility Clouds Conditions
4 miles
  • Overcast at 8,500' AGL
  • Mist
Temperatures Readings
Current 24°C / 75°F
Dewpoint 22°C / 72°F
Humidity 89%
Altimeter 29.99" Hg
Pressure 1016 hPa
Elevation 208
METAR KFWS 141246Z 00000KT 4SM BR OVC085 24/22 A2999
Observed Flight Rules
Aug-14 @ 12:46 UTC
(56 minutes ago)
MVFR
Clouds
  • Overcast at 8,500' AGL
Conditions
  • Mist
Temperature Dewpoint
24°C / 75°F 22°C / 72°F
Humidity Altimeter Pressure
89% 29.99" Hg 1016 hPa